createdAt,value
2022-11-16T00:02:19.327Z,84.00
2022-11-16T00:04:48.777Z,83.83
2022-11-16T00:07:18.018Z,84.35
2022-11-16T00:09:47.965Z,84.17
2022-11-16T00:12:18.415Z,84.04
2022-11-16T00:14:47.731Z,84.22
2022-11-16T00:17:16.850Z,84.35
2022-11-16T00:19:46.284Z,84.61
2022-11-16T00:22:15.427Z,84.36
2022-11-16T00:24:44.791Z,84.67
2022-11-16T00:27:14.182Z,84.55
2022-11-16T00:29:44.984Z,84.05
2022-11-16T00:32:14.177Z,84.53
2022-11-16T00:34:43.532Z,84.67
2022-11-16T00:37:12.589Z,84.48
2022-11-16T00:39:42.083Z,84.51
2022-11-16T00:42:14.976Z,84.69
2022-11-16T00:44:45.760Z,84.55
2022-11-16T00:47:14.809Z,84.02
2022-11-16T00:49:44.200Z,84.70
2022-11-16T00:52:13.303Z,84.16
2022-11-16T00:54:42.699Z,84.69
2022-11-16T00:57:12.217Z,84.85
2022-11-16T00:59:41.704Z,85.19
2022-11-16T01:02:12.212Z,84.78
2022-11-16T01:04:43.639Z,83.88
2022-11-16T01:07:12.778Z,84.69
2022-11-16T01:09:43.310Z,84.71
2022-11-16T01:12:12.684Z,84.72
2022-11-16T01:14:45.519Z,84.36
2022-11-16T01:17:16.144Z,84.96
2022-11-16T01:19:45.554Z,84.73
2022-11-16T01:22:14.825Z,84.61
2022-11-16T01:24:44.237Z,84.88
2022-11-16T01:27:13.629Z,85.12
2022-11-16T01:29:46.666Z,85.04
2022-11-16T01:32:17.567Z,84.65
2022-11-16T01:34:46.971Z,84.47
2022-11-16T01:37:25.411Z,84.75
2022-11-16T01:39:54.859Z,84.74
2022-11-16T01:42:27.277Z,84.92
2022-11-16T01:45:03.155Z,85.36
2022-11-16T01:47:34.054Z,84.64
2022-11-16T01:50:11.264Z,84.88
2022-11-16T01:52:47.406Z,84.95
2022-11-16T01:55:17.026Z,84.96
2022-11-16T01:58:07.172Z,84.76
2022-11-16T02:00:38.362Z,84.79
2022-11-16T02:03:27.812Z,85.43
2022-11-16T02:09:42.604Z,84.69
2022-11-16T02:12:24.064Z,84.71
2022-11-16T02:15:10.681Z,84.51
2022-11-16T02:17:49.702Z,84.80
2022-11-16T02:20:43.620Z,85.09
2022-11-16T02:23:37.650Z,85.14
2022-11-16T02:26:23.231Z,84.85
2022-11-16T02:29:11.855Z,84.51
2022-11-16T02:31:46.280Z,84.77
2022-11-16T02:34:18.778Z,84.76
2022-11-16T02:36:50.944Z,84.99
2022-11-16T02:39:25.825Z,84.31
2022-11-16T02:41:55.763Z,84.54
2022-11-16T02:44:33.547Z,84.49
2022-11-16T02:47:06.644Z,84.85
2022-11-16T02:49:39.306Z,84.09
2022-11-16T02:52:09.019Z,84.22
2022-11-16T02:54:38.347Z,84.49
2022-11-16T02:57:37.980Z,83.97
2022-11-16T03:00:13.835Z,84.07
2022-11-16T03:02:49.714Z,83.70
2022-11-16T03:05:31.927Z,83.52
2022-11-16T03:08:13.610Z,83.54
2022-11-16T03:11:02.745Z,83.60
2022-11-16T03:13:34.808Z,83.41
2022-11-16T03:16:11.422Z,83.58
2022-11-16T03:18:42.841Z,83.52
2022-11-16T03:21:19.154Z,83.36
2022-11-16T03:23:48.531Z,83.86
2022-11-16T03:26:23.895Z,83.30
2022-11-16T03:29:01.398Z,83.67
2022-11-16T03:31:39.033Z,82.98
2022-11-16T03:34:16.258Z,83.33
2022-11-16T03:36:49.394Z,83.16
2022-11-16T03:39:23.162Z,83.56
2022-11-16T03:41:52.848Z,83.52
2022-11-16T03:44:22.756Z,83.55
2022-11-16T03:46:53.475Z,83.25
2022-11-16T03:49:23.891Z,83.50
2022-11-16T03:51:55.455Z,83.23
2022-11-16T03:54:26.402Z,82.94
2022-11-16T03:56:55.689Z,82.78
2022-11-16T03:59:25.190Z,82.99
2022-11-16T04:01:55.868Z,82.93
2022-11-16T04:04:42.024Z,83.91
2022-11-16T04:07:29.197Z,82.91
2022-11-16T04:10:15.543Z,82.96
2022-11-16T04:13:04.206Z,83.11
2022-11-16T04:15:50.573Z,82.83
2022-11-16T04:18:38.726Z,82.43
2022-11-16T04:21:27.717Z,83.22
2022-11-16T04:24:15.061Z,82.68
2022-11-16T04:27:05.340Z,83.19
2022-11-16T04:29:36.126Z,83.05
2022-11-16T04:32:24.379Z,82.67
2022-11-16T04:35:15.245Z,82.47
2022-11-16T04:37:52.599Z,82.43
2022-11-16T04:40:30.477Z,82.12
2022-11-16T04:43:03.319Z,82.27
2022-11-16T04:45:54.381Z,81.91
2022-11-16T04:48:27.461Z,81.81
2022-11-16T04:50:58.796Z,81.89
2022-11-16T04:53:28.410Z,81.82
2022-11-16T04:56:06.022Z,81.68
2022-11-16T04:58:36.062Z,81.37
2022-11-16T05:01:05.826Z,81.16
2022-11-16T05:03:35.343Z,81.32
2022-11-16T05:06:06.294Z,80.75
2022-11-16T05:08:36.509Z,80.56
2022-11-16T05:11:07.565Z,80.47
2022-11-16T05:13:36.549Z,81.21
2022-11-16T05:16:06.214Z,80.88
2022-11-16T05:18:35.594Z,81.07
2022-11-16T05:21:06.568Z,80.33
2022-11-16T05:23:56.733Z,80.38
2022-11-16T05:26:30.483Z,80.67
2022-11-16T05:28:59.580Z,79.90
2022-11-16T05:31:29.091Z,79.45
2022-11-16T05:33:58.182Z,80.38
2022-11-16T05:36:28.868Z,79.84
2022-11-16T05:38:57.898Z,80.19
2022-11-16T05:41:30.307Z,80.06
2022-11-16T05:44:00.507Z,79.54
2022-11-16T05:46:29.824Z,80.00
2022-11-16T05:49:01.726Z,79.75
2022-11-16T05:51:32.446Z,79.34
2022-11-16T05:54:01.513Z,79.76
2022-11-16T05:56:31.859Z,79.50
2022-11-16T05:59:01.280Z,79.42
2022-11-16T06:01:31.091Z,79.67
2022-11-16T06:04:01.465Z,79.47
2022-11-16T06:06:33.812Z,79.42
2022-11-16T06:09:03.142Z,79.75
2022-11-16T06:11:36.246Z,79.39
2022-11-16T06:14:06.592Z,79.37
2022-11-16T06:16:37.275Z,79.41
2022-11-16T06:19:09.673Z,79.56
2022-11-16T06:21:40.772Z,78.90
2022-11-16T06:24:15.706Z,79.14
2022-11-16T06:26:47.114Z,78.94
2022-11-16T06:29:16.089Z,78.72
2022-11-16T06:31:45.483Z,78.85
2022-11-16T06:34:24.729Z,79.40
2022-11-16T06:36:55.588Z,79.04
2022-11-16T06:39:24.658Z,78.84
2022-11-16T06:41:54.538Z,78.53
2022-11-16T06:44:23.649Z,78.83
2022-11-16T06:46:59.287Z,78.00
2022-11-16T06:49:28.519Z,78.49
2022-11-16T06:52:03.097Z,78.64
2022-11-16T06:54:33.056Z,77.90
2022-11-16T06:57:02.450Z,77.56
2022-11-16T06:59:31.533Z,77.57
2022-11-16T07:02:01.056Z,77.60
2022-11-16T07:04:34.007Z,77.85
2022-11-16T07:07:06.319Z,78.26
2022-11-16T07:09:37.241Z,77.72
2022-11-16T07:12:07.143Z,77.33
2022-11-16T07:14:39.613Z,77.30
2022-11-16T07:17:11.267Z,77.45
2022-11-16T07:19:40.907Z,78.04
2022-11-16T07:22:11.798Z,77.61
2022-11-16T07:24:41.219Z,76.80
2022-11-16T07:27:12.172Z,77.71
2022-11-16T07:29:46.198Z,77.05
2022-11-16T07:32:36.205Z,76.84
2022-11-16T07:35:11.604Z,77.40
2022-11-16T07:37:43.382Z,76.80
2022-11-16T07:40:13.838Z,76.42
2022-11-16T07:42:43.648Z,76.82
2022-11-16T07:45:31.045Z,76.07
2022-11-16T07:48:06.940Z,76.91
2022-11-16T07:50:54.660Z,76.56
2022-11-16T07:53:26.524Z,76.27
2022-11-16T07:55:55.759Z,76.67
2022-11-16T07:58:28.348Z,76.18
2022-11-16T08:01:05.987Z,76.54
2022-11-16T08:03:37.372Z,76.62
2022-11-16T08:06:12.212Z,76.34
2022-11-16T08:08:43.343Z,76.32
2022-11-16T08:11:14.486Z,76.13
2022-11-16T08:13:44.948Z,76.38
2022-11-16T08:16:16.479Z,76.43
2022-11-16T08:18:47.932Z,76.60
2022-11-16T08:21:19.965Z,76.13
2022-11-16T08:23:56.780Z,76.20
2022-11-16T08:26:27.613Z,76.61
2022-11-16T08:29:02.550Z,75.95
2022-11-16T08:31:36.082Z,76.63
2022-11-16T08:34:13.736Z,76.12
2022-11-16T08:36:46.832Z,76.50
2022-11-16T08:39:17.639Z,75.75
2022-11-16T08:41:46.691Z,75.67
2022-11-16T08:44:18.030Z,75.82
2022-11-16T08:46:51.218Z,75.89
2022-11-16T08:49:45.169Z,75.77
2022-11-16T08:52:17.624Z,76.15
2022-11-16T08:54:48.656Z,76.55
2022-11-16T08:57:18.741Z,75.98
2022-11-16T08:59:51.339Z,75.52
2022-11-16T09:02:25.443Z,76.07
2022-11-16T09:04:55.335Z,75.71
2022-11-16T09:07:24.463Z,75.49
2022-11-16T09:09:55.376Z,75.90
2022-11-16T09:12:24.568Z,76.16
2022-11-16T09:14:53.842Z,75.61
2022-11-16T09:17:23.457Z,75.33
2022-11-16T09:19:53.008Z,75.05
2022-11-16T09:22:22.239Z,74.95
2022-11-16T09:24:52.084Z,75.09
2022-11-16T09:27:23.037Z,75.68
2022-11-16T09:29:53.323Z,75.81
2022-11-16T09:32:22.335Z,76.12
2022-11-16T09:34:51.623Z,75.67
2022-11-16T09:37:20.623Z,75.17
2022-11-16T09:39:49.914Z,76.20
2022-11-16T09:42:32.880Z,75.81
2022-11-16T09:45:06.315Z,75.30
2022-11-16T09:47:44.747Z,76.33
2022-11-16T09:50:29.600Z,76.03
2022-11-16T09:53:06.141Z,76.14
2022-11-16T09:55:40.512Z,75.12
2022-11-16T09:58:17.290Z,75.60
2022-11-16T10:00:53.682Z,75.80
2022-11-16T10:03:23.080Z,76.00
2022-11-16T10:05:58.482Z,75.69
2022-11-16T10:08:36.548Z,75.93
2022-11-16T10:11:27.042Z,76.09
2022-11-16T10:14:09.396Z,75.94
2022-11-16T10:16:44.837Z,76.18
2022-11-16T10:19:20.883Z,75.85
2022-11-16T10:21:56.741Z,75.71
2022-11-16T10:24:37.495Z,76.10
2022-11-16T10:27:28.656Z,76.30
2022-11-16T10:30:09.246Z,75.31
2022-11-16T10:32:42.220Z,75.39
2022-11-16T10:35:19.841Z,75.85
2022-11-16T10:37:51.087Z,75.48
2022-11-16T10:40:24.556Z,76.45
2022-11-16T10:43:05.735Z,76.58
2022-11-16T10:45:41.372Z,76.03
2022-11-16T10:48:22.910Z,76.32
2022-11-16T10:50:53.430Z,76.20
2022-11-16T10:53:29.498Z,76.14
2022-11-16T10:56:12.723Z,75.94
2022-11-16T10:59:07.221Z,75.08
2022-11-16T11:01:40.140Z,75.95
2022-11-16T11:04:22.004Z,75.93
2022-11-16T11:06:53.179Z,75.95
2022-11-16T11:09:26.380Z,75.55
2022-11-16T11:12:22.070Z,76.20
2022-11-16T11:15:03.614Z,75.53
2022-11-16T11:17:36.411Z,75.55
2022-11-16T11:20:08.463Z,75.69
2022-11-16T11:22:45.083Z,75.83
2022-11-16T11:25:22.989Z,75.66
2022-11-16T11:27:53.843Z,75.91
2022-11-16T11:30:23.966Z,75.19
2022-11-16T11:32:54.364Z,76.18
2022-11-16T11:35:28.849Z,75.61
2022-11-16T11:38:04.808Z,75.77
2022-11-16T11:40:36.865Z,75.68
2022-11-16T11:43:07.291Z,74.58
2022-11-16T11:45:49.014Z,74.41
2022-11-16T11:48:31.759Z,74.54
2022-11-16T11:51:10.031Z,74.56
2022-11-16T11:53:55.707Z,74.57
2022-11-16T11:56:26.254Z,75.27
2022-11-16T11:58:55.785Z,74.64
2022-11-16T12:01:49.268Z,75.02
2022-11-16T12:05:08.954Z,74.61
2022-11-16T12:07:52.778Z,74.09
2022-11-16T12:10:29.721Z,74.17
2022-11-16T12:13:11.853Z,74.15
2022-11-16T12:16:03.852Z,74.72
2022-11-16T12:18:47.499Z,74.26
2022-11-16T12:21:32.759Z,74.51
2022-11-16T12:24:23.461Z,74.01
2022-11-16T12:26:59.704Z,74.56
2022-11-16T12:29:34.682Z,74.35
2022-11-16T12:32:22.986Z,73.83
2022-11-16T12:35:27.849Z,73.60
2022-11-16T12:38:07.457Z,73.67
2022-11-16T12:40:50.256Z,73.98
2022-11-16T12:43:24.808Z,73.97
2022-11-16T12:46:12.330Z,73.67
2022-11-16T12:49:11.402Z,74.02
2022-11-16T12:51:53.670Z,73.56
2022-11-16T12:54:52.418Z,73.47
2022-11-16T12:57:38.089Z,74.11
2022-11-16T13:00:10.279Z,74.23
2022-11-16T13:03:03.582Z,74.44
2022-11-16T13:05:53.693Z,74.38
2022-11-16T13:08:29.893Z,74.45
2022-11-16T13:11:10.230Z,73.33
2022-11-16T13:13:41.610Z,74.08
2022-11-16T13:16:17.080Z,74.16
2022-11-16T13:18:46.525Z,73.66
2022-11-16T13:21:26.638Z,73.75
2022-11-16T13:24:08.002Z,73.11
2022-11-16T13:26:49.636Z,73.30
2022-11-16T13:29:30.311Z,73.52
2022-11-16T13:32:06.940Z,73.03
2022-11-16T13:34:39.197Z,73.57
2022-11-16T13:37:41.155Z,72.96
2022-11-16T13:40:27.664Z,73.35
2022-11-16T13:43:19.404Z,73.17
2022-11-16T13:46:01.913Z,73.32
2022-11-16T13:48:34.851Z,73.62
2022-11-16T13:51:07.104Z,73.69
2022-11-16T13:56:47.255Z,73.07
2022-11-16T13:59:24.990Z,73.63
2022-11-16T14:01:58.793Z,72.70
2022-11-16T14:04:42.846Z,73.72
2022-11-16T14:07:42.892Z,73.17
2022-11-16T14:10:13.660Z,73.72
2022-11-16T14:12:53.434Z,73.68
2022-11-16T14:15:35.159Z,73.65
2022-11-16T14:18:37.145Z,73.40
2022-11-16T14:21:26.670Z,73.40
2022-11-16T14:24:20.480Z,73.32
2022-11-16T14:27:05.443Z,73.86
2022-11-16T14:29:55.343Z,73.54
2022-11-16T14:32:28.167Z,73.55
2022-11-16T14:34:59.989Z,74.04
2022-11-16T14:37:39.958Z,73.14
2022-11-16T14:40:14.199Z,73.24
2022-11-16T14:43:10.027Z,73.70
2022-11-16T14:45:40.612Z,73.33
2022-11-16T14:48:18.791Z,72.93
2022-11-16T14:51:00.155Z,73.19
2022-11-16T14:53:30.414Z,73.18
2022-11-16T14:56:09.861Z,73.30
2022-11-16T14:58:39.494Z,73.27
2022-11-16T15:01:14.793Z,73.03
2022-11-16T15:03:55.731Z,72.84
2022-11-16T15:06:27.910Z,73.33
2022-11-16T15:09:00.378Z,73.17
2022-11-16T15:11:47.137Z,73.32
2022-11-16T15:14:20.756Z,73.49
2022-11-16T15:16:52.866Z,73.59
2022-11-16T15:19:24.034Z,73.18
2022-11-16T15:21:54.718Z,73.17
2022-11-16T15:24:32.633Z,73.40
2022-11-16T15:27:20.052Z,73.21
2022-11-16T15:29:49.811Z,73.45
2022-11-16T15:32:19.535Z,73.43
2022-11-16T15:34:54.336Z,73.33
2022-11-16T15:37:30.811Z,72.94
2022-11-16T15:40:00.683Z,73.70
2022-11-16T15:42:30.736Z,72.56
2022-11-16T15:45:03.839Z,72.69
2022-11-16T15:47:33.109Z,72.27
2022-11-16T15:50:03.512Z,72.36
2022-11-16T15:52:47.175Z,72.72
2022-11-16T15:55:35.046Z,73.11
2022-11-16T15:58:19.331Z,72.39
2022-11-16T16:00:49.603Z,72.66
2022-11-16T16:03:23.177Z,72.73
2022-11-16T16:05:54.407Z,72.54
2022-11-16T16:08:30.219Z,72.14
2022-11-16T16:11:04.754Z,72.27
2022-11-16T16:13:36.478Z,72.14
2022-11-16T16:16:31.374Z,72.16
2022-11-16T16:19:08.358Z,72.64
2022-11-16T16:21:45.863Z,72.28
2022-11-16T16:24:41.229Z,72.82
2022-11-16T16:27:18.614Z,72.80
2022-11-16T16:29:49.272Z,72.08
2022-11-16T16:32:25.245Z,71.61
2022-11-16T16:34:55.726Z,71.96
2022-11-16T16:37:28.500Z,71.95
2022-11-16T16:39:58.016Z,71.65
2022-11-16T16:42:26.996Z,72.03
2022-11-16T16:44:56.268Z,72.24
2022-11-16T16:47:25.220Z,72.05
2022-11-16T16:49:54.560Z,72.20
2022-11-16T16:52:25.235Z,72.24
2022-11-16T16:54:54.468Z,71.98
2022-11-16T16:57:23.413Z,72.36
2022-11-16T16:59:52.681Z,72.29
2022-11-16T17:02:21.752Z,71.85
2022-11-16T17:04:51.006Z,71.57
2022-11-16T17:07:20.012Z,71.84
2022-11-16T17:09:50.666Z,72.07
2022-11-16T17:12:19.381Z,71.92
2022-11-16T17:14:51.780Z,71.98
2022-11-16T17:17:21.235Z,72.15
2022-11-16T17:19:50.483Z,71.67
2022-11-16T17:22:20.383Z,71.39
2022-11-16T17:24:51.019Z,71.95
2022-11-16T17:27:19.737Z,71.31
2022-11-16T17:29:48.976Z,71.81
2022-11-16T17:32:17.934Z,71.25
2022-11-16T17:34:48.173Z,71.54
2022-11-16T17:37:17.136Z,71.42
2022-11-16T17:39:46.395Z,71.75
2022-11-16T17:42:16.757Z,71.82
2022-11-16T17:44:46.115Z,71.29
2022-11-16T17:47:15.050Z,71.63
2022-11-16T17:49:44.296Z,71.86
2022-11-16T17:52:13.246Z,71.46
2022-11-16T17:54:42.514Z,72.19
2022-11-16T17:57:11.736Z,71.84
2022-11-16T17:59:42.407Z,72.07
2022-11-16T18:02:11.663Z,71.25
2022-11-16T18:04:41.136Z,71.71
2022-11-16T18:07:10.753Z,71.70
2022-11-16T18:09:40.158Z,71.76
2022-11-16T18:12:09.197Z,72.28
2022-11-16T18:14:38.447Z,71.87
2022-11-16T18:17:10.075Z,71.88
2022-11-16T18:19:39.715Z,72.32
2022-11-16T18:22:34.550Z,71.77
2022-11-16T18:25:20.626Z,71.79
2022-11-16T18:27:53.380Z,71.90
2022-11-16T18:30:25.000Z,72.02
2022-11-16T18:32:55.651Z,71.89
2022-11-16T18:35:29.069Z,71.66
2022-11-16T18:37:58.547Z,71.60
2022-11-16T18:40:27.841Z,71.69
2022-11-16T18:42:59.723Z,72.12
2022-11-16T18:45:51.534Z,71.26
2022-11-16T18:48:25.921Z,71.79
2022-11-16T18:51:49.198Z,71.42
2022-11-16T18:54:46.417Z,71.98
2022-11-16T18:57:16.456Z,71.49
2022-11-16T18:59:45.541Z,71.28
2022-11-16T19:02:14.802Z,71.14
2022-11-16T19:04:45.630Z,71.75
2022-11-16T19:07:14.911Z,71.55
2022-11-16T19:09:43.868Z,71.88
2022-11-16T19:12:13.117Z,71.61
2022-11-16T19:14:42.071Z,71.74
2022-11-16T19:17:11.321Z,71.80
2022-11-16T19:19:40.557Z,71.54
2022-11-16T19:22:11.200Z,72.37
2022-11-16T19:24:39.948Z,71.81
2022-11-16T19:27:09.184Z,71.75
2022-11-16T19:29:38.143Z,71.98
2022-11-16T19:32:07.491Z,72.12
2022-11-16T19:34:36.427Z,71.89
2022-11-16T19:37:05.921Z,71.97
2022-11-16T19:39:37.528Z,71.93
2022-11-16T19:42:07.038Z,72.29
2022-11-16T19:44:35.985Z,71.58
2022-11-16T19:47:06.310Z,71.36
2022-11-16T19:49:35.275Z,71.16
2022-11-16T19:52:05.192Z,71.20
2022-11-16T19:54:34.159Z,71.48
2022-11-16T19:57:04.860Z,71.50
2022-11-16T19:59:33.832Z,71.75
2022-11-16T20:02:03.304Z,71.81
2022-11-16T20:04:34.375Z,71.54
2022-11-16T20:07:03.681Z,71.42
2022-11-16T20:09:32.711Z,71.50
2022-11-16T20:12:03.354Z,71.29
2022-11-16T20:14:32.380Z,71.11
2022-11-16T20:17:01.640Z,71.43
2022-11-16T20:19:30.621Z,70.99
2022-11-16T20:22:00.558Z,71.43
2022-11-16T20:24:29.497Z,71.07
2022-11-16T20:26:59.033Z,71.03
2022-11-16T20:29:29.625Z,71.29
2022-11-16T20:31:59.922Z,71.46
2022-11-16T20:34:28.855Z,71.56
2022-11-16T20:36:58.069Z,71.22
2022-11-16T20:39:27.053Z,71.66
2022-11-16T20:41:56.273Z,71.64
2022-11-16T20:44:25.830Z,70.89
2022-11-16T20:46:56.681Z,71.32
2022-11-16T20:49:25.603Z,71.56
2022-11-16T20:51:54.863Z,71.48
2022-11-16T20:54:24.451Z,71.71
2022-11-16T20:56:53.729Z,71.56
2022-11-16T20:59:22.682Z,70.87
2022-11-16T21:01:56.038Z,71.07
2022-11-16T21:04:27.275Z,71.21
2022-11-16T21:06:56.603Z,71.43
2022-11-16T21:09:25.799Z,71.38
2022-11-16T21:12:12.408Z,71.12
2022-11-16T21:14:41.362Z,71.56
2022-11-16T21:17:10.598Z,71.61
2022-11-16T21:19:54.301Z,71.75
2022-11-16T21:22:32.820Z,71.31
2022-11-16T21:25:02.275Z,71.21
2022-11-16T21:27:31.516Z,71.83
2022-11-16T21:30:00.472Z,71.47
2022-11-16T21:32:29.826Z,70.86
2022-11-16T21:35:00.526Z,71.07
2022-11-16T21:37:29.758Z,71.87
2022-11-16T21:39:58.692Z,71.37
2022-11-16T21:42:27.934Z,71.24
2022-11-16T21:44:56.864Z,71.27
2022-11-16T21:47:26.104Z,71.50
2022-11-16T21:50:24.850Z,71.13
2022-11-16T21:52:46.427Z,70.89
2022-11-16T21:55:15.506Z,71.34
2022-11-16T21:57:44.732Z,71.90
2022-11-16T22:00:14.699Z,71.16
2022-11-16T22:02:43.919Z,71.17
2022-11-16T22:05:30.386Z,71.18
2022-11-16T22:08:06.087Z,71.29
2022-11-16T22:10:35.088Z,70.94
2022-11-16T22:13:04.598Z,70.97
2022-11-16T22:15:33.600Z,71.07
2022-11-16T22:18:03.988Z,70.99
2022-11-16T22:20:33.292Z,71.02
2022-11-16T22:23:03.892Z,71.42
2022-11-16T22:25:33.461Z,71.41
2022-11-16T22:30:59.630Z,71.01
2022-11-16T22:33:30.555Z,71.15
2022-11-16T22:36:00.517Z,70.96
2022-11-16T22:38:31.004Z,71.07
2022-11-16T22:41:00.422Z,71.25
2022-11-16T22:43:31.343Z,70.82
2022-11-16T22:46:01.886Z,71.06
2022-11-16T22:48:32.440Z,70.85
2022-11-16T22:51:06.688Z,70.46
2022-11-16T22:53:37.900Z,70.44
2022-11-16T22:56:09.455Z,70.62
2022-11-16T22:58:39.326Z,71.12
2022-11-16T23:01:09.997Z,70.70
2022-11-16T23:03:39.261Z,70.84
2022-11-16T23:06:09.252Z,70.67
2022-11-16T23:08:41.066Z,70.28
2022-11-16T23:11:29.929Z,71.00
2022-11-16T23:14:16.497Z,70.93
2022-11-16T23:16:46.553Z,70.35
2022-11-16T23:19:35.158Z,70.92
2022-11-16T23:22:22.742Z,70.80
2022-11-16T23:25:10.888Z,70.73
2022-11-16T23:27:45.039Z,71.26
2022-11-16T23:30:14.840Z,70.97
2022-11-16T23:32:44.185Z,70.60
2022-11-16T23:35:13.807Z,70.73
2022-11-16T23:37:54.152Z,70.56
2022-11-16T23:40:26.042Z,70.71
2022-11-16T23:43:13.680Z,70.95
2022-11-16T23:45:44.028Z,70.28
2022-11-16T23:48:14.978Z,71.10
2022-11-16T23:50:45.178Z,70.65
2022-11-16T23:53:15.253Z,70.34
2022-11-16T23:55:45.645Z,71.11
2022-11-16T23:58:16.564Z,71.02
